Terminal Aerodrome Forecast
Issued by NWS

Home | Current Version | Previous Version | Text Only | Print | Product List | Glossary On
Versions: 1 2 3 4 5 6 7 8 9 10 11 12 13 14 15 16 17 18 19 20 21 22 23 24 25 26
000
FTUS41 KBTV 022330
TAFMSS
TAF
KMSS 022330Z 0300/0324 23005KT 5SM HZ VCSH SCT120
     FM030500 00000KT 3SM BR BKN035
     FM031100 00000KT 6SM HZ BKN040
     FM031600 01006KT P6SM SCT070=

USA.gov is the U.S. government's official web portal to all federal, state and local government web resources and services.